KVLD/VLD METAR and TAF weather

Enter ICAO airport designator
Station Type Date Time Source
KVLD METAR 2019/12/06 23:53 UTC NOAA

KVLD 062353Z 00000KT 10SM CLR 12/07 A3017 RMK AO2 SLP224 T01220072 10211 20117 53004


Station Type Date Time Source
KVLD Decoded METAR 2019/12/06 23:53 UTC NOAA

VALDOSTA REGIONAL AIRPORT, GA, United States (KVLD) 30-47N 083-16W
Dec 06, 2019 - 06:53 PM EST / 2019.12.06 2353 UTC
Wind: Calm:0
Visibility: 10 mile(s):0
Sky conditions: clear
Temperature: 54.0 F (12.2 C)
Dew Point: 45.0 F (7.2 C)
Relative Humidity: 71%
Pressure (altimeter): 30.17 in. Hg (1021 hPa)
Pressure tendency: 0.01 inches (0.4 hPa) higher than three hours ago
ob: KVLD 062353Z 00000KT 10SM CLR 12/07 A3017 RMK AO2 SLP224 T01220072 10211 20117 53004
cycle: 0

Station Type Date Time Source
KVLD TAF 2019/12/06 18:27 UTC NOAA

TAF KVLD 061723Z 0618/0718 15005KT P6SM BKN200
FM071000 07004KT P6SM BKN050

Example: see airport list